sensor_id;sensor_type;location;lat;lon;timestamp;temperature;humidity
8002;DHT22;4046;48.774;8.732;2023-09-18T00:00:50;25.80;99.90
8002;DHT22;4046;48.774;8.732;2023-09-18T00:03:20;25.80;99.90
8002;DHT22;4046;48.774;8.732;2023-09-18T00:05:49;25.80;99.90
8002;DHT22;4046;48.774;8.732;2023-09-18T00:08:16;25.80;99.90
8002;DHT22;4046;48.774;8.732;2023-09-18T00:10:42;25.80;99.90
8002;DHT22;4046;48.774;8.732;2023-09-18T00:13:08;25.80;99.90
8002;DHT22;4046;48.774;8.732;2023-09-18T00:15:34;25.80;99.90
8002;DHT22;4046;48.774;8.732;2023-09-18T00:18:00;25.70;99.90
8002;DHT22;4046;48.774;8.732;2023-09-18T00:20:26;25.80;99.90
8002;DHT22;4046;48.774;8.732;2023-09-18T00:22:55;25.70;99.90
8002;DHT22;4046;48.774;8.732;2023-09-18T00:25:22;25.80;99.90
8002;DHT22;4046;48.774;8.732;2023-09-18T00:27:48;25.70;99.90
8002;DHT22;4046;48.774;8.732;2023-09-18T00:30:14;25.70;99.90
8002;DHT22;4046;48.774;8.732;2023-09-18T00:32:39;25.70;99.90
8002;DHT22;4046;48.774;8.732;2023-09-18T00:35:05;25.70;99.90
8002;DHT22;4046;48.774;8.732;2023-09-18T00:37:31;25.70;99.90
8002;DHT22;4046;48.774;8.732;2023-09-18T00:39:57;25.70;99.90
8002;DHT22;4046;48.774;8.732;2023-09-18T00:42:24;25.70;99.90
8002;DHT22;4046;48.774;8.732;2023-09-18T00:44:50;25.70;99.90
8002;DHT22;4046;48.774;8.732;2023-09-18T00:47:19;25.70;99.90
8002;DHT22;4046;48.774;8.732;2023-09-18T00:49:47;25.70;99.90
8002;DHT22;4046;48.774;8.732;2023-09-18T00:52:14;25.70;99.90
8002;DHT22;4046;48.774;8.732;2023-09-18T00:54:42;25.70;99.90
8002;DHT22;4046;48.774;8.732;2023-09-18T00:57:09;25.70;99.90
8002;DHT22;4046;48.774;8.732;2023-09-18T00:59:37;25.70;99.90
8002;DHT22;4046;48.774;8.732;2023-09-18T01:02:03;25.70;99.90
8002;DHT22;4046;48.774;8.732;2023-09-18T01:04:29;25.70;99.90
8002;DHT22;4046;48.774;8.732;2023-09-18T01:06:55;25.70;99.90
8002;DHT22;4046;48.774;8.732;2023-09-18T01:09:24;25.70;99.90
8002;DHT22;4046;48.774;8.732;2023-09-18T01:11:59;25.70;99.90
8002;DHT22;4046;48.774;8.732;2023-09-18T01:17:00;25.60;99.90
8002;DHT22;4046;48.774;8.732;2023-09-18T01:22:04;25.60;99.90
8002;DHT22;4046;48.774;8.732;2023-09-18T01:24:35;25.60;99.90
8002;DHT22;4046;48.774;8.732;2023-09-18T01:27:01;25.70;99.90
8002;DHT22;4046;48.774;8.732;2023-09-18T01:29:27;25.60;99.90
8002;DHT22;4046;48.774;8.732;2023-09-18T01:31:53;25.60;99.90
8002;DHT22;4046;48.774;8.732;2023-09-18T01:34:22;25.60;99.90
8002;DHT22;4046;48.774;8.732;2023-09-18T01:36:51;25.60;99.90
8002;DHT22;4046;48.774;8.732;2023-09-18T01:39:18;25.60;99.90
8002;DHT22;4046;48.774;8.732;2023-09-18T01:41:45;25.60;99.90
8002;DHT22;4046;48.774;8.732;2023-09-18T01:44:11;25.60;99.90
8002;DHT22;4046;48.774;8.732;2023-09-18T01:46:37;25.60;99.90
8002;DHT22;4046;48.774;8.732;2023-09-18T01:49:03;25.60;99.90
8002;DHT22;4046;48.774;8.732;2023-09-18T01:51:29;25.60;99.90
8002;DHT22;4046;48.774;8.732;2023-09-18T01:53:56;25.60;99.90
8002;DHT22;4046;48.774;8.732;2023-09-18T01:56:23;25.60;99.90
8002;DHT22;4046;48.774;8.732;2023-09-18T01:58:49;25.60;99.90
8002;DHT22;4046;48.774;8.732;2023-09-18T02:01:15;25.60;99.90
8002;DHT22;4046;48.774;8.732;2023-09-18T02:03:40;25.60;99.90
8002;DHT22;4046;48.774;8.732;2023-09-18T02:06:07;25.60;99.90
8002;DHT22;4046;48.774;8.732;2023-09-18T02:08:35;25.50;99.90
8002;DHT22;4046;48.774;8.732;2023-09-18T02:11:01;25.60;99.90
8002;DHT22;4046;48.774;8.732;2023-09-18T02:13:28;25.60;99.90
8002;DHT22;4046;48.774;8.732;2023-09-18T02:15:53;25.60;99.90
8002;DHT22;4046;48.774;8.732;2023-09-18T02:18:19;25.50;99.90
8002;DHT22;4046;48.774;8.732;2023-09-18T02:20:46;25.60;99.90
8002;DHT22;4046;48.774;8.732;2023-09-18T02:23:17;25.70;99.90
8002;DHT22;4046;48.774;8.732;2023-09-18T02:25:44;25.50;99.90
8002;DHT22;4046;48.774;8.732;2023-09-18T02:28:10;25.50;99.90
8002;DHT22;4046;48.774;8.732;2023-09-18T02:30:37;25.50;99.90
8002;DHT22;4046;48.774;8.732;2023-09-18T02:33:04;25.50;99.90
8002;DHT22;4046;48.774;8.732;2023-09-18T02:35:29;25.50;99.90
8002;DHT22;4046;48.774;8.732;2023-09-18T02:37:57;25.50;99.90
8002;DHT22;4046;48.774;8.732;2023-09-18T02:40:22;25.50;99.90
8002;DHT22;4046;48.774;8.732;2023-09-18T02:42:48;25.50;99.90
8002;DHT22;4046;48.774;8.732;2023-09-18T02:45:14;25.60;99.90
8002;DHT22;4046;48.774;8.732;2023-09-18T02:47:39;25.50;99.90
8002;DHT22;4046;48.774;8.732;2023-09-18T02:50:07;25.50;99.90
8002;DHT22;4046;48.774;8.732;2023-09-18T02:52:33;25.50;99.90
8002;DHT22;4046;48.774;8.732;2023-09-18T02:54:58;25.50;99.90
8002;DHT22;4046;48.774;8.732;2023-09-18T02:57:24;25.50;99.90
8002;DHT22;4046;48.774;8.732;2023-09-18T02:59:50;25.50;99.90
8002;DHT22;4046;48.774;8.732;2023-09-18T03:02:15;25.50;99.90
8002;DHT22;4046;48.774;8.732;2023-09-18T03:04:41;25.50;99.90
8002;DHT22;4046;48.774;8.732;2023-09-18T03:07:07;25.50;99.90
8002;DHT22;4046;48.774;8.732;2023-09-18T03:09:32;25.50;99.90
8002;DHT22;4046;48.774;8.732;2023-09-18T03:11:58;25.50;99.90
8002;DHT22;4046;48.774;8.732;2023-09-18T03:14:24;25.50;99.90
8002;DHT22;4046;48.774;8.732;2023-09-18T03:16:49;25.50;99.90
8002;DHT22;4046;48.774;8.732;2023-09-18T03:19:15;25.50;99.90
8002;DHT22;4046;48.774;8.732;2023-09-18T03:21:41;25.50;99.90
8002;DHT22;4046;48.774;8.732;2023-09-18T03:24:07;25.50;99.90
8002;DHT22;4046;48.774;8.732;2023-09-18T03:26:33;25.50;99.90
8002;DHT22;4046;48.774;8.732;2023-09-18T03:28:58;25.40;99.90
8002;DHT22;4046;48.774;8.732;2023-09-18T03:31:24;25.40;99.90
8002;DHT22;4046;48.774;8.732;2023-09-18T03:33:50;25.40;99.90
8002;DHT22;4046;48.774;8.732;2023-09-18T03:36:16;25.40;99.90
8002;DHT22;4046;48.774;8.732;2023-09-18T03:38:42;25.40;99.90
8002;DHT22;4046;48.774;8.732;2023-09-18T03:41:08;25.40;99.90
8002;DHT22;4046;48.774;8.732;2023-09-18T03:43:33;25.40;99.90
8002;DHT22;4046;48.774;8.732;2023-09-18T03:46:06;25.40;99.90
8002;DHT22;4046;48.774;8.732;2023-09-18T03:48:32;25.40;99.90
8002;DHT22;4046;48.774;8.732;2023-09-18T03:51:06;25.40;99.90
8002;DHT22;4046;48.774;8.732;2023-09-18T03:53:33;25.40;99.90
8002;DHT22;4046;48.774;8.732;2023-09-18T03:55:59;25.40;99.90
8002;DHT22;4046;48.774;8.732;2023-09-18T03:58:25;25.40;99.90
8002;DHT22;4046;48.774;8.732;2023-09-18T04:00:51;25.40;99.90
8002;DHT22;4046;48.774;8.732;2023-09-18T04:03:17;25.40;99.90
8002;DHT22;4046;48.774;8.732;2023-09-18T04:05:43;25.40;99.90
8002;DHT22;4046;48.774;8.732;2023-09-18T04:08:08;25.30;99.90
8002;DHT22;4046;48.774;8.732;2023-09-18T04:10:34;25.30;99.90
8002;DHT22;4046;48.774;8.732;2023-09-18T04:13:00;25.30;99.90
8002;DHT22;4046;48.774;8.732;2023-09-18T04:15:26;25.30;99.90
8002;DHT22;4046;48.774;8.732;2023-09-18T04:17:53;25.40;99.90
8002;DHT22;4046;48.774;8.732;2023-09-18T04:20:19;25.30;99.90
8002;DHT22;4046;48.774;8.732;2023-09-18T04:22:46;25.30;99.90
8002;DHT22;4046;48.774;8.732;2023-09-18T04:25:16;25.30;99.90
8002;DHT22;4046;48.774;8.732;2023-09-18T04:27:42;25.30;99.90
8002;DHT22;4046;48.774;8.732;2023-09-18T04:30:08;25.30;99.90
8002;DHT22;4046;48.774;8.732;2023-09-18T04:32:37;25.30;99.90
8002;DHT22;4046;48.774;8.732;2023-09-18T04:35:03;25.30;99.90
8002;DHT22;4046;48.774;8.732;2023-09-18T04:37:30;25.30;99.90
8002;DHT22;4046;48.774;8.732;2023-09-18T04:39:57;25.30;99.90
8002;DHT22;4046;48.774;8.732;2023-09-18T04:42:23;25.30;99.90
8002;DHT22;4046;48.774;8.732;2023-09-18T04:44:49;25.30;99.90
8002;DHT22;4046;48.774;8.732;2023-09-18T04:47:15;25.30;99.90
8002;DHT22;4046;48.774;8.732;2023-09-18T04:49:41;25.30;99.90
8002;DHT22;4046;48.774;8.732;2023-09-18T04:52:07;25.30;99.90
8002;DHT22;4046;48.774;8.732;2023-09-18T04:54:32;25.20;99.90
8002;DHT22;4046;48.774;8.732;2023-09-18T04:56:58;25.30;99.90
8002;DHT22;4046;48.774;8.732;2023-09-18T04:59:24;25.20;99.90
8002;DHT22;4046;48.774;8.732;2023-09-18T05:01:50;25.20;99.90
8002;DHT22;4046;48.774;8.732;2023-09-18T05:04:15;25.20;99.90
8002;DHT22;4046;48.774;8.732;2023-09-18T05:06:41;25.20;99.90
8002;DHT22;4046;48.774;8.732;2023-09-18T05:09:07;25.20;99.90
8002;DHT22;4046;48.774;8.732;2023-09-18T05:11:33;25.20;99.90
8002;DHT22;4046;48.774;8.732;2023-09-18T05:13:59;25.20;99.90
8002;DHT22;4046;48.774;8.732;2023-09-18T05:16:25;25.20;99.90
8002;DHT22;4046;48.774;8.732;2023-09-18T05:18:51;25.20;99.90
8002;DHT22;4046;48.774;8.732;2023-09-18T05:21:16;25.20;99.90
8002;DHT22;4046;48.774;8.732;2023-09-18T05:23:48;25.20;99.90
8002;DHT22;4046;48.774;8.732;2023-09-18T05:26:13;25.20;99.90
8002;DHT22;4046;48.774;8.732;2023-09-18T05:28:39;25.20;99.90
8002;DHT22;4046;48.774;8.732;2023-09-18T05:31:05;25.10;99.90
8002;DHT22;4046;48.774;8.732;2023-09-18T05:33:30;25.20;99.90
8002;DHT22;4046;48.774;8.732;2023-09-18T05:35:56;25.20;99.90
8002;DHT22;4046;48.774;8.732;2023-09-18T05:38:22;25.20;99.90
8002;DHT22;4046;48.774;8.732;2023-09-18T05:40:48;25.20;99.90
8002;DHT22;4046;48.774;8.732;2023-09-18T05:43:14;25.10;99.90
8002;DHT22;4046;48.774;8.732;2023-09-18T05:45:40;25.20;99.90
8002;DHT22;4046;48.774;8.732;2023-09-18T05:48:06;25.10;99.90
8002;DHT22;4046;48.774;8.732;2023-09-18T05:50:34;25.20;99.90
8002;DHT22;4046;48.774;8.732;2023-09-18T05:53:01;25.20;99.90
8002;DHT22;4046;48.774;8.732;2023-09-18T05:55:33;25.10;99.90
8002;DHT22;4046;48.774;8.732;2023-09-18T05:58:00;25.10;99.90
8002;DHT22;4046;48.774;8.732;2023-09-18T06:00:26;25.10;99.90
8002;DHT22;4046;48.774;8.732;2023-09-18T06:02:52;25.10;99.90
8002;DHT22;4046;48.774;8.732;2023-09-18T06:05:18;25.10;99.90
8002;DHT22;4046;48.774;8.732;2023-09-18T06:07:50;25.10;99.90
8002;DHT22;4046;48.774;8.732;2023-09-18T06:10:16;25.10;99.90
8002;DHT22;4046;48.774;8.732;2023-09-18T06:12:43;25.10;99.90
8002;DHT22;4046;48.774;8.732;2023-09-18T06:15:10;25.10;99.90
8002;DHT22;4046;48.774;8.732;2023-09-18T06:17:41;25.10;99.90
8002;DHT22;4046;48.774;8.732;2023-09-18T06:20:08;25.10;99.90
8002;DHT22;4046;48.774;8.732;2023-09-18T06:22:39;25.10;99.90
8002;DHT22;4046;48.774;8.732;2023-09-18T06:25:06;25.10;99.90
8002;DHT22;4046;48.774;8.732;2023-09-18T06:27:34;25.10;99.90
8002;DHT22;4046;48.774;8.732;2023-09-18T06:30:00;25.10;99.90
8002;DHT22;4046;48.774;8.732;2023-09-18T06:32:26;25.10;99.90
8002;DHT22;4046;48.774;8.732;2023-09-18T06:34:52;25.10;99.90
8002;DHT22;4046;48.774;8.732;2023-09-18T06:37:18;25.10;99.90
8002;DHT22;4046;48.774;8.732;2023-09-18T06:39:44;25.10;99.90
8002;DHT22;4046;48.774;8.732;2023-09-18T06:42:10;25.10;99.90
8002;DHT22;4046;48.774;8.732;2023-09-18T06:44:36;25.10;99.90
8002;DHT22;4046;48.774;8.732;2023-09-18T06:47:01;25.10;99.90
8002;DHT22;4046;48.774;8.732;2023-09-18T06:49:27;25.10;99.90
8002;DHT22;4046;48.774;8.732;2023-09-18T06:51:53;25.10;99.90
8002;DHT22;4046;48.774;8.732;2023-09-18T06:54:18;25.10;99.90
8002;DHT22;4046;48.774;8.732;2023-09-18T06:56:44;25.10;99.90
8002;DHT22;4046;48.774;8.732;2023-09-18T06:59:10;25.10;99.90
8002;DHT22;4046;48.774;8.732;2023-09-18T07:01:37;25.10;99.90
8002;DHT22;4046;48.774;8.732;2023-09-18T07:04:03;25.10;99.90
8002;DHT22;4046;48.774;8.732;2023-09-18T07:06:30;25.10;99.90
8002;DHT22;4046;48.774;8.732;2023-09-18T07:08:56;25.10;99.90
8002;DHT22;4046;48.774;8.732;2023-09-18T07:11:21;25.10;99.90
8002;DHT22;4046;48.774;8.732;2023-09-18T07:13:47;25.10;99.90
8002;DHT22;4046;48.774;8.732;2023-09-18T07:16:13;25.10;99.90
8002;DHT22;4046;48.774;8.732;2023-09-18T07:18:39;25.10;99.90
8002;DHT22;4046;48.774;8.732;2023-09-18T07:21:05;25.10;99.90
8002;DHT22;4046;48.774;8.732;2023-09-18T07:23:30;25.10;99.90
8002;DHT22;4046;48.774;8.732;2023-09-18T07:25:56;25.10;99.90
8002;DHT22;4046;48.774;8.732;2023-09-18T07:28:24;25.10;99.90
8002;DHT22;4046;48.774;8.732;2023-09-18T07:30:50;25.10;99.90
8002;DHT22;4046;48.774;8.732;2023-09-18T07:33:16;25.10;99.90
8002;DHT22;4046;48.774;8.732;2023-09-18T07:35:46;25.10;99.90
8002;DHT22;4046;48.774;8.732;2023-09-18T07:38:12;25.10;99.90
8002;DHT22;4046;48.774;8.732;2023-09-18T07:40:38;25.10;99.90
8002;DHT22;4046;48.774;8.732;2023-09-18T07:43:04;25.10;99.90
8002;DHT22;4046;48.774;8.732;2023-09-18T07:45:29;25.10;99.90
8002;DHT22;4046;48.774;8.732;2023-09-18T07:47:55;25.10;99.90
8002;DHT22;4046;48.774;8.732;2023-09-18T07:50:21;25.10;99.90
8002;DHT22;4046;48.774;8.732;2023-09-18T07:52:47;25.10;99.90
8002;DHT22;4046;48.774;8.732;2023-09-18T07:55:12;25.10;99.90
8002;DHT22;4046;48.774;8.732;2023-09-18T07:57:38;25.10;99.90
8002;DHT22;4046;48.774;8.732;2023-09-18T08:00:05;25.00;99.90
8002;DHT22;4046;48.774;8.732;2023-09-18T08:02:35;25.10;99.90
8002;DHT22;4046;48.774;8.732;2023-09-18T08:05:01;25.10;99.90
8002;DHT22;4046;48.774;8.732;2023-09-18T08:07:27;25.10;99.90
8002;DHT22;4046;48.774;8.732;2023-09-18T08:09:53;25.10;99.90
8002;DHT22;4046;48.774;8.732;2023-09-18T08:12:19;25.10;99.90
8002;DHT22;4046;48.774;8.732;2023-09-18T08:14:45;25.10;99.90
8002;DHT22;4046;48.774;8.732;2023-09-18T08:17:12;25.20;99.90
8002;DHT22;4046;48.774;8.732;2023-09-18T08:19:38;25.10;99.90
8002;DHT22;4046;48.774;8.732;2023-09-18T08:22:05;25.00;99.90
8002;DHT22;4046;48.774;8.732;2023-09-18T08:24:31;25.10;99.90
8002;DHT22;4046;48.774;8.732;2023-09-18T08:26:57;25.00;99.90
8002;DHT22;4046;48.774;8.732;2023-09-18T08:29:23;25.00;99.90
8002;DHT22;4046;48.774;8.732;2023-09-18T08:31:49;25.00;99.90
8002;DHT22;4046;48.774;8.732;2023-09-18T08:34:16;25.00;99.90
8002;DHT22;4046;48.774;8.732;2023-09-18T08:36:42;25.00;99.90
8002;DHT22;4046;48.774;8.732;2023-09-18T08:39:08;25.00;99.90
8002;DHT22;4046;48.774;8.732;2023-09-18T08:41:38;25.00;99.90
8002;DHT22;4046;48.774;8.732;2023-09-18T08:44:07;25.00;99.90
8002;DHT22;4046;48.774;8.732;2023-09-18T08:46:34;25.00;99.90
8002;DHT22;4046;48.774;8.732;2023-09-18T08:49:01;25.00;99.90
8002;DHT22;4046;48.774;8.732;2023-09-18T08:51:27;25.00;99.90
8002;DHT22;4046;48.774;8.732;2023-09-18T08:53:54;25.00;99.90
8002;DHT22;4046;48.774;8.732;2023-09-18T08:56:21;25.00;99.90
8002;DHT22;4046;48.774;8.732;2023-09-18T08:58:48;25.00;99.90
8002;DHT22;4046;48.774;8.732;2023-09-18T09:01:13;25.00;99.90
8002;DHT22;4046;48.774;8.732;2023-09-18T09:03:43;25.00;99.90
8002;DHT22;4046;48.774;8.732;2023-09-18T09:06:11;25.10;99.90
8002;DHT22;4046;48.774;8.732;2023-09-18T09:08:37;25.00;99.90
8002;DHT22;4046;48.774;8.732;2023-09-18T09:11:04;25.00;99.90
8002;DHT22;4046;48.774;8.732;2023-09-18T09:13:29;25.00;99.90
8002;DHT22;4046;48.774;8.732;2023-09-18T09:15:57;25.00;99.90
8002;DHT22;4046;48.774;8.732;2023-09-18T09:18:29;25.00;99.90
8002;DHT22;4046;48.774;8.732;2023-09-18T09:21:00;25.00;99.90
8002;DHT22;4046;48.774;8.732;2023-09-18T09:23:27;25.00;99.90
8002;DHT22;4046;48.774;8.732;2023-09-18T09:26:11;25.00;99.90
8002;DHT22;4046;48.774;8.732;2023-09-18T09:28:38;24.90;99.90
8002;DHT22;4046;48.774;8.732;2023-09-18T09:31:03;24.90;99.90
8002;DHT22;4046;48.774;8.732;2023-09-18T09:33:30;24.90;99.90
8002;DHT22;4046;48.774;8.732;2023-09-18T09:35:57;24.90;99.90
8002;DHT22;4046;48.774;8.732;2023-09-18T09:38:30;24.90;99.90
8002;DHT22;4046;48.774;8.732;2023-09-18T09:41:03;24.90;99.90
8002;DHT22;4046;48.774;8.732;2023-09-18T09:43:32;24.90;99.90
8002;DHT22;4046;48.774;8.732;2023-09-18T09:46:02;25.00;99.90
8002;DHT22;4046;48.774;8.732;2023-09-18T09:48:29;25.00;99.90
8002;DHT22;4046;48.774;8.732;2023-09-18T09:51:00;25.00;99.90
8002;DHT22;4046;48.774;8.732;2023-09-18T09:53:45;24.90;99.90
8002;DHT22;4046;48.774;8.732;2023-09-18T09:56:14;25.00;99.90
8002;DHT22;4046;48.774;8.732;2023-09-18T09:58:40;25.00;99.90
8002;DHT22;4046;48.774;8.732;2023-09-18T10:01:12;24.90;99.90
8002;DHT22;4046;48.774;8.732;2023-09-18T10:03:44;24.90;99.90
8002;DHT22;4046;48.774;8.732;2023-09-18T10:06:11;25.00;99.90
8002;DHT22;4046;48.774;8.732;2023-09-18T10:08:39;25.00;99.90
8002;DHT22;4046;48.774;8.732;2023-09-18T10:11:07;25.00;99.90
8002;DHT22;4046;48.774;8.732;2023-09-18T10:13:41;24.90;99.90
8002;DHT22;4046;48.774;8.732;2023-09-18T10:16:13;25.00;99.90
8002;DHT22;4046;48.774;8.732;2023-09-18T10:19:00;24.90;99.90
8002;DHT22;4046;48.774;8.732;2023-09-18T10:21:41;24.90;99.90
8002;DHT22;4046;48.774;8.732;2023-09-18T10:24:28;24.90;99.90
8002;DHT22;4046;48.774;8.732;2023-09-18T10:26:59;24.90;99.90
8002;DHT22;4046;48.774;8.732;2023-09-18T10:29:27;24.90;99.90
8002;DHT22;4046;48.774;8.732;2023-09-18T10:31:54;24.90;99.90
8002;DHT22;4046;48.774;8.732;2023-09-18T10:34:21;24.90;99.90
8002;DHT22;4046;48.774;8.732;2023-09-18T10:36:48;24.90;99.90
8002;DHT22;4046;48.774;8.732;2023-09-18T10:39:14;24.90;99.90
8002;DHT22;4046;48.774;8.732;2023-09-18T10:41:52;24.90;99.90
8002;DHT22;4046;48.774;8.732;2023-09-18T10:44:18;24.90;99.90
8002;DHT22;4046;48.774;8.732;2023-09-18T10:46:48;24.90;99.90
8002;DHT22;4046;48.774;8.732;2023-09-18T10:49:19;24.90;99.90
8002;DHT22;4046;48.774;8.732;2023-09-18T10:51:46;24.90;99.90
8002;DHT22;4046;48.774;8.732;2023-09-18T10:54:16;24.90;99.90
8002;DHT22;4046;48.774;8.732;2023-09-18T10:56:42;24.90;99.90
8002;DHT22;4046;48.774;8.732;2023-09-18T10:59:09;24.90;99.90
8002;DHT22;4046;48.774;8.732;2023-09-18T11:01:36;24.90;99.90
8002;DHT22;4046;48.774;8.732;2023-09-18T11:04:06;24.90;99.90
8002;DHT22;4046;48.774;8.732;2023-09-18T11:09:25;24.90;99.90
8002;DHT22;4046;48.774;8.732;2023-09-18T11:12:03;24.90;99.90
8002;DHT22;4046;48.774;8.732;2023-09-18T11:15:02;24.90;99.90
8002;DHT22;4046;48.774;8.732;2023-09-18T11:20:23;24.90;99.90
8002;DHT22;4046;48.774;8.732;2023-09-18T11:22:59;24.90;99.90
8002;DHT22;4046;48.774;8.732;2023-09-18T11:25:30;24.90;99.90
8002;DHT22;4046;48.774;8.732;2023-09-18T11:28:23;24.90;99.90
8002;DHT22;4046;48.774;8.732;2023-09-18T11:30:54;24.90;99.90
8002;DHT22;4046;48.774;8.732;2023-09-18T11:33:40;25.00;99.90
8002;DHT22;4046;48.774;8.732;2023-09-18T11:36:14;24.90;99.90
8002;DHT22;4046;48.774;8.732;2023-09-18T11:39:00;24.90;99.90
8002;DHT22;4046;48.774;8.732;2023-09-18T11:41:31;24.90;99.90
8002;DHT22;4046;48.774;8.732;2023-09-18T11:46:49;24.90;99.90
8002;DHT22;4046;48.774;8.732;2023-09-18T11:49:22;25.00;99.90
8002;DHT22;4046;48.774;8.732;2023-09-18T11:51:48;24.90;99.90
8002;DHT22;4046;48.774;8.732;2023-09-18T11:54:15;24.90;99.90
8002;DHT22;4046;48.774;8.732;2023-09-18T11:56:42;24.90;99.90
8002;DHT22;4046;48.774;8.732;2023-09-18T11:59:09;24.90;99.90
8002;DHT22;4046;48.774;8.732;2023-09-18T12:01:36;24.90;99.90
8002;DHT22;4046;48.774;8.732;2023-09-18T12:04:05;24.90;99.90
8002;DHT22;4046;48.774;8.732;2023-09-18T12:06:41;24.90;99.90
8002;DHT22;4046;48.774;8.732;2023-09-18T12:09:08;24.90;99.90
8002;DHT22;4046;48.774;8.732;2023-09-18T12:11:34;24.90;99.90
8002;DHT22;4046;48.774;8.732;2023-09-18T12:14:01;24.90;99.90
8002;DHT22;4046;48.774;8.732;2023-09-18T12:16:28;24.90;99.90
8002;DHT22;4046;48.774;8.732;2023-09-18T12:18:53;25.00;99.90
8002;DHT22;4046;48.774;8.732;2023-09-18T12:21:19;24.90;99.90
8002;DHT22;4046;48.774;8.732;2023-09-18T12:23:46;24.90;99.90
8002;DHT22;4046;48.774;8.732;2023-09-18T12:26:13;24.90;99.90
8002;DHT22;4046;48.774;8.732;2023-09-18T12:28:41;24.90;99.90
8002;DHT22;4046;48.774;8.732;2023-09-18T12:31:11;24.90;99.90
8002;DHT22;4046;48.774;8.732;2023-09-18T12:33:38;25.00;99.90
8002;DHT22;4046;48.774;8.732;2023-09-18T12:36:05;24.90;99.90
8002;DHT22;4046;48.774;8.732;2023-09-18T12:38:31;24.90;99.90
8002;DHT22;4046;48.774;8.732;2023-09-18T12:40:57;25.00;99.90
8002;DHT22;4046;48.774;8.732;2023-09-18T12:43:39;25.00;99.90
8002;DHT22;4046;48.774;8.732;2023-09-18T12:46:06;24.90;99.90
8002;DHT22;4046;48.774;8.732;2023-09-18T12:48:37;24.90;99.90
8002;DHT22;4046;48.774;8.732;2023-09-18T12:51:06;24.90;99.90
8002;DHT22;4046;48.774;8.732;2023-09-18T12:53:33;24.90;99.90
8002;DHT22;4046;48.774;8.732;2023-09-18T12:56:10;24.90;99.90
8002;DHT22;4046;48.774;8.732;2023-09-18T12:58:36;24.90;99.90
8002;DHT22;4046;48.774;8.732;2023-09-18T13:01:09;24.90;99.90
8002;DHT22;4046;48.774;8.732;2023-09-18T13:03:41;24.90;99.90
8002;DHT22;4046;48.774;8.732;2023-09-18T13:06:11;24.90;99.90
8002;DHT22;4046;48.774;8.732;2023-09-18T13:08:38;24.90;99.90
8002;DHT22;4046;48.774;8.732;2023-09-18T13:11:04;24.90;99.90
8002;DHT22;4046;48.774;8.732;2023-09-18T13:13:30;24.90;99.90
8002;DHT22;4046;48.774;8.732;2023-09-18T13:15:58;24.90;99.90
8002;DHT22;4046;48.774;8.732;2023-09-18T13:18:25;24.90;99.90
8002;DHT22;4046;48.774;8.732;2023-09-18T13:20:52;24.90;99.90
8002;DHT22;4046;48.774;8.732;2023-09-18T13:23:18;24.90;99.90
8002;DHT22;4046;48.774;8.732;2023-09-18T13:25:43;24.90;99.90
8002;DHT22;4046;48.774;8.732;2023-09-18T13:28:12;24.90;99.90
8002;DHT22;4046;48.774;8.732;2023-09-18T13:30:40;24.90;99.90
8002;DHT22;4046;48.774;8.732;2023-09-18T13:33:11;25.00;99.90
8002;DHT22;4046;48.774;8.732;2023-09-18T13:35:41;25.00;99.90
8002;DHT22;4046;48.774;8.732;2023-09-18T13:38:08;25.00;99.90
8002;DHT22;4046;48.774;8.732;2023-09-18T13:40:40;25.00;99.90
8002;DHT22;4046;48.774;8.732;2023-09-18T13:43:08;25.00;99.90
8002;DHT22;4046;48.774;8.732;2023-09-18T13:45:35;24.90;99.90
8002;DHT22;4046;48.774;8.732;2023-09-18T13:48:02;25.00;99.90
8002;DHT22;4046;48.774;8.732;2023-09-18T13:50:28;25.00;99.90
8002;DHT22;4046;48.774;8.732;2023-09-18T13:52:54;25.00;99.90
8002;DHT22;4046;48.774;8.732;2023-09-18T13:55:19;25.00;99.90
8002;DHT22;4046;48.774;8.732;2023-09-18T13:57:46;25.00;99.90
8002;DHT22;4046;48.774;8.732;2023-09-18T14:00:13;25.00;99.90
8002;DHT22;4046;48.774;8.732;2023-09-18T14:02:40;25.00;99.90
8002;DHT22;4046;48.774;8.732;2023-09-18T14:05:07;25.00;99.90
8002;DHT22;4046;48.774;8.732;2023-09-18T14:07:34;25.00;99.90
8002;DHT22;4046;48.774;8.732;2023-09-18T14:09:59;25.10;99.90
8002;DHT22;4046;48.774;8.732;2023-09-18T14:12:29;25.10;99.90
8002;DHT22;4046;48.774;8.732;2023-09-18T14:14:56;25.10;99.90
8002;DHT22;4046;48.774;8.732;2023-09-18T14:17:22;25.10;99.90
8002;DHT22;4046;48.774;8.732;2023-09-18T14:19:48;25.10;99.90
8002;DHT22;4046;48.774;8.732;2023-09-18T14:22:14;24.80;99.90
8002;DHT22;4046;48.774;8.732;2023-09-18T14:24:40;25.10;99.90
8002;DHT22;4046;48.774;8.732;2023-09-18T14:27:06;25.10;99.90
8002;DHT22;4046;48.774;8.732;2023-09-18T14:29:33;25.10;99.90
8002;DHT22;4046;48.774;8.732;2023-09-18T14:32:00;25.10;99.90
8002;DHT22;4046;48.774;8.732;2023-09-18T14:34:26;25.20;99.90
8002;DHT22;4046;48.774;8.732;2023-09-18T14:36:52;25.20;99.90
8002;DHT22;4046;48.774;8.732;2023-09-18T14:39:18;25.20;99.90
8002;DHT22;4046;48.774;8.732;2023-09-18T14:41:43;25.20;99.90
8002;DHT22;4046;48.774;8.732;2023-09-18T14:44:10;25.40;99.90
8002;DHT22;4046;48.774;8.732;2023-09-18T14:46:36;25.20;99.90
8002;DHT22;4046;48.774;8.732;2023-09-18T14:49:06;25.20;99.90
8002;DHT22;4046;48.774;8.732;2023-09-18T14:51:35;25.20;99.90
8002;DHT22;4046;48.774;8.732;2023-09-18T14:54:01;25.20;99.90
8002;DHT22;4046;48.774;8.732;2023-09-18T14:56:27;25.20;99.90
8002;DHT22;4046;48.774;8.732;2023-09-18T14:58:53;25.30;99.90
8002;DHT22;4046;48.774;8.732;2023-09-18T15:01:21;25.20;99.90
8002;DHT22;4046;48.774;8.732;2023-09-18T15:03:48;25.20;99.90
8002;DHT22;4046;48.774;8.732;2023-09-18T15:06:14;25.20;99.90
8002;DHT22;4046;48.774;8.732;2023-09-18T15:08:40;25.20;99.90
8002;DHT22;4046;48.774;8.732;2023-09-18T15:11:06;25.20;99.90
8002;DHT22;4046;48.774;8.732;2023-09-18T15:13:33;25.20;99.90
8002;DHT22;4046;48.774;8.732;2023-09-18T15:16:01;25.20;99.90
8002;DHT22;4046;48.774;8.732;2023-09-18T15:18:26;25.20;99.90
8002;DHT22;4046;48.774;8.732;2023-09-18T15:20:52;25.20;99.90
8002;DHT22;4046;48.774;8.732;2023-09-18T15:23:24;25.20;99.90
8002;DHT22;4046;48.774;8.732;2023-09-18T15:25:50;25.20;99.90
8002;DHT22;4046;48.774;8.732;2023-09-18T15:28:16;25.20;99.90
8002;DHT22;4046;48.774;8.732;2023-09-18T15:30:46;25.20;99.90
8002;DHT22;4046;48.774;8.732;2023-09-18T15:33:12;25.20;99.90
8002;DHT22;4046;48.774;8.732;2023-09-18T15:35:39;25.20;99.90
8002;DHT22;4046;48.774;8.732;2023-09-18T15:38:04;25.20;99.90
8002;DHT22;4046;48.774;8.732;2023-09-18T15:40:33;25.20;99.90
8002;DHT22;4046;48.774;8.732;2023-09-18T15:42:59;25.20;99.90
8002;DHT22;4046;48.774;8.732;2023-09-18T15:45:25;25.20;99.90
8002;DHT22;4046;48.774;8.732;2023-09-18T15:47:51;25.20;99.90
8002;DHT22;4046;48.774;8.732;2023-09-18T15:50:17;25.40;99.90
8002;DHT22;4046;48.774;8.732;2023-09-18T15:52:44;25.20;99.90
8002;DHT22;4046;48.774;8.732;2023-09-18T15:55:09;25.20;99.90
8002;DHT22;4046;48.774;8.732;2023-09-18T15:57:36;25.20;99.90
8002;DHT22;4046;48.774;8.732;2023-09-18T16:00:04;25.20;99.90
8002;DHT22;4046;48.774;8.732;2023-09-18T16:02:34;25.20;99.90
8002;DHT22;4046;48.774;8.732;2023-09-18T16:05:01;25.20;99.90
8002;DHT22;4046;48.774;8.732;2023-09-18T16:07:30;25.20;99.90
8002;DHT22;4046;48.774;8.732;2023-09-18T16:09:56;25.20;99.90
8002;DHT22;4046;48.774;8.732;2023-09-18T16:12:23;25.20;99.90
8002;DHT22;4046;48.774;8.732;2023-09-18T16:14:49;25.20;99.90
8002;DHT22;4046;48.774;8.732;2023-09-18T16:17:15;25.20;99.90